Amuse — PI3644 — position and weather

sailwx.info

Track history (hours):
 
Tides and Currents Weather Stations Pressure Air Temp Water Temp Dewpoint Dewpoint Depression Visibility Wind Speed Wind Dir Waves Ship Positions

Amuse

Last reported at 2017-Dec-09 04:29 UTC. Time now 2017-Dec-15 23:52 UTC.
Position N 28°08' W 015°26'.

Length 13 m.

Type: Sailing vessel. MMSI: 244250238.

Date/timePositionNaut miles runAvg speedWind from/ knotsBaromVisibWave heightAir tempDewpointWater temp
2017-Dec-09 04:29N 28°08' W 015°26'0 0.0
2017-Dec-09 03:59N 28°08' W 015°26'0 0.0
2017-Dec-09 03:29N 28°08' W 015°26'0 0.0
2017-Dec-09 02:59N 28°08' W 015°26'0 0.0
2017-Dec-09 02:29N 28°08' W 015°26'0 0.0
2017-Dec-09 01:59N 28°08' W 015°26'0 0.0
2017-Dec-09 01:29N 28°08' W 015°26'0 0.0
2017-Dec-09 00:59N 28°08' W 015°26'0 0.0
2017-Dec-09 00:29N 28°08' W 015°26'0 0.0
2017-Dec-08 23:59N 28°08' W 015°26'0 0.0
2017-Dec-08 23:29N 28°08' W 015°26'0 0.0
2017-Dec-08 22:48N 28°08' W 015°26'0 0.0
2017-Dec-08 22:29N 28°08' W 015°26'0 0.0
2017-Dec-08 22:00N 28°08' W 015°26'0 0.0
2017-Dec-08 21:30N 28°08' W 015°26'0 0.0
2017-Dec-08 20:57N 28°08' W 015°26'0 0.0
2017-Dec-08 20:27N 28°08' W 015°26'0 0.0
2017-Dec-08 19:54N 28°08' W 015°26'0 0.0
2017-Dec-08 19:24N 28°08' W 015°26'0 0.0
2017-Dec-08 18:54N 28°08' W 015°26'0 0.0
2017-Dec-08 18:20N 28°08' W 015°26'0 0.0
2017-Dec-08 17:50N 28°08' W 015°26'0 0.0
2017-Dec-08 17:20N 28°08' W 015°26'0 0.0
2017-Dec-08 16:50N 28°08' W 015°26'0 0.0
2017-Dec-08 16:23N 28°08' W 015°26'0 0.0
2017-Dec-08 16:00N 28°08' W 015°26'0 0.0
2017-Dec-08 15:24N 28°08' W 015°26'0 0.0
2017-Dec-08 14:54N 28°08' W 015°26'0 0.0
2017-Dec-08 14:30N 28°08' W 015°26'0 0.0
2017-Dec-08 13:49N 28°08' W 015°26'0 0.0
2017-Dec-08 13:19N 28°08' W 015°26'0 0.0
2017-Dec-08 13:00N 28°08' W 015°26'0 0.0
2017-Dec-08 12:28N 28°08' W 015°26'0 0.0
2017-Dec-08 11:49N 28°08' W 015°26'0 0.0
2017-Dec-08 11:28N 28°08' W 015°26'  
2017-Dec-03 12:36N 28°08' W 015°26'0 0.0
2017-Dec-03 12:29N 28°08' W 015°26'2 3.7
2017-Dec-03 11:59N 28°08' W 015°23'2 5.0
2017-Dec-03 11:29N 28°09' W 015°21'3 5.4
2017-Dec-03 10:59N 28°11' W 015°19'3 5.5
2017-Dec-03 10:29N 28°13' W 015°16'3 5.2
2017-Dec-03 09:58N 28°15' W 015°15'3 5.4
2017-Dec-03 09:28N 28°17' W 015°13'3 5.4
2017-Dec-03 08:58N 28°19' W 015°11'3 5.7
2017-Dec-03 08:26N 28°21' W 015°09'3 5.3
2017-Dec-03 07:57N 28°23' W 015°07'3 5.1
2017-Dec-03 07:26N 28°25' W 015°04'2 4.4
2017-Dec-03 06:56N 28°26' W 015°02'2 3.5
2017-Dec-03 06:26N 28°27' W 015°00'2 3.7
2017-Dec-03 05:55N 28°28' W 014°58'2 3.8
2017-Dec-03 05:30N 28°28' W 014°57'2 3.6
2017-Dec-03 04:54N 28°29' W 014°54'2 3.9
2017-Dec-03 04:23N 28°30' W 014°52'2 4.1
2017-Dec-03 04:00N 28°30' W 014°51'  
Track history (hours):
 
Tides and Currents Weather Stations Pressure Air Temp Water Temp Dewpoint Dewpoint Depression Visibility Wind Speed Wind Dir Waves Ship Positions

Amuse

Last reported at 2017-Dec-09 04:29 UTC. Time now 2017-Dec-15 23:52 UTC.
Position N 28°08' W 015°26'.

Length 13 m.

Type: Sailing vessel. MMSI: 244250238.

Date/timePositionNaut miles runAvg speedWind from/ knotsBaromVisibWave heightAir tempDewpointWater temp
2017-Dec-09 04:29N 28°08' W 015°26'0 0.0
2017-Dec-09 03:59N 28°08' W 015°26'0 0.0
2017-Dec-09 03:29N 28°08' W 015°26'0 0.0
2017-Dec-09 02:59N 28°08' W 015°26'0 0.0
2017-Dec-09 02:29N 28°08' W 015°26'0 0.0
2017-Dec-09 01:59N 28°08' W 015°26'0 0.0
2017-Dec-09 01:29N 28°08' W 015°26'0 0.0
2017-Dec-09 00:59N 28°08' W 015°26'0 0.0
2017-Dec-09 00:29N 28°08' W 015°26'0 0.0
2017-Dec-08 23:59N 28°08' W 015°26'0 0.0
2017-Dec-08 23:29N 28°08' W 015°26'0 0.0
2017-Dec-08 22:48N 28°08' W 015°26'0 0.0
2017-Dec-08 22:29N 28°08' W 015°26'0 0.0
2017-Dec-08 22:00N 28°08' W 015°26'0 0.0
2017-Dec-08 21:30N 28°08' W 015°26'0 0.0
2017-Dec-08 20:57N 28°08' W 015°26'0 0.0
2017-Dec-08 20:27N 28°08' W 015°26'0 0.0
2017-Dec-08 19:54N 28°08' W 015°26'0 0.0
2017-Dec-08 19:24N 28°08' W 015°26'0 0.0
2017-Dec-08 18:54N 28°08' W 015°26'0 0.0
2017-Dec-08 18:20N 28°08' W 015°26'0 0.0
2017-Dec-08 17:50N 28°08' W 015°26'0 0.0
2017-Dec-08 17:20N 28°08' W 015°26'0 0.0
2017-Dec-08 16:50N 28°08' W 015°26'0 0.0
2017-Dec-08 16:23N 28°08' W 015°26'0 0.0
2017-Dec-08 16:00N 28°08' W 015°26'0 0.0
2017-Dec-08 15:24N 28°08' W 015°26'0 0.0
2017-Dec-08 14:54N 28°08' W 015°26'0 0.0
2017-Dec-08 14:30N 28°08' W 015°26'0 0.0
2017-Dec-08 13:49N 28°08' W 015°26'0 0.0
2017-Dec-08 13:19N 28°08' W 015°26'0 0.0
2017-Dec-08 13:00N 28°08' W 015°26'0 0.0
2017-Dec-08 12:28N 28°08' W 015°26'0 0.0
2017-Dec-08 11:49N 28°08' W 015°26'0 0.0
2017-Dec-08 11:28N 28°08' W 015°26'  
2017-Dec-03 12:36N 28°08' W 015°26'0 0.0
2017-Dec-03 12:29N 28°08' W 015°26'2 3.7
2017-Dec-03 11:59N 28°08' W 015°23'2 5.0
2017-Dec-03 11:29N 28°09' W 015°21'3 5.4
2017-Dec-03 10:59N 28°11' W 015°19'3 5.5
2017-Dec-03 10:29N 28°13' W 015°16'3 5.2
2017-Dec-03 09:58N 28°15' W 015°15'3 5.4
2017-Dec-03 09:28N 28°17' W 015°13'3 5.4
2017-Dec-03 08:58N 28°19' W 015°11'3 5.7
2017-Dec-03 08:26N 28°21' W 015°09'3 5.3
2017-Dec-03 07:57N 28°23' W 015°07'3 5.1
2017-Dec-03 07:26N 28°25' W 015°04'2 4.4
2017-Dec-03 06:56N 28°26' W 015°02'2 3.5
2017-Dec-03 06:26N 28°27' W 015°00'2 3.7
2017-Dec-03 05:55N 28°28' W 014°58'2 3.8
2017-Dec-03 05:30N 28°28' W 014°57'2 3.6
2017-Dec-03 04:54N 28°29' W 014°54'2 3.9
2017-Dec-03 04:23N 28°30' W 014°52'2 4.1
2017-Dec-03 04:00N 28°30' W 014°51'  

Dump ship's entire track history